Time;durP1;ratioP1;P1;durP2;ratioP2;P2;SDS_P1;SDS_P2;PMS_P1;PMS_P2;Temp;Humidity;BMP_temperature;BMP_pressure;BME280_temperature;BME280_humidity;BME280_pressure;Samples;Min_cycle;Max_cycle;Signal;HPM_P1;HPM_P2
2023/10/03 00:01:11;;;;;;;45.70;19.55;;;16.00;99.90;;;;;;4928899;29;20043;-78
2023/10/03 00:03:36;;;;;;;45.40;20.58;;;16.00;99.90;;;;;;4929439;29;20044;-78
2023/10/03 00:06:05;;;;;;;49.80;20.02;;;16.00;99.90;;;;;;4928760;29;20292;-77
2023/10/03 00:08:49;;;;;;;45.03;18.95;;;15.90;99.90;;;;;;4929256;29;20269;-80
2023/10/03 00:11:24;;;;;;;40.58;18.30;;;15.90;99.90;;;;;;4928484;29;20056;-79
2023/10/03 00:13:50;;;;;;;44.25;18.67;;;15.90;99.90;;;;;;4929676;29;20043;-76
2023/10/03 00:16:17;;;;;;;44.35;18.77;;;15.90;99.90;;;;;;4931681;29;20028;-77
2023/10/03 00:18:43;;;;;;;44.38;19.15;;;15.90;99.90;;;;;;4928291;29;20247;-79
2023/10/03 00:21:09;;;;;;;44.38;18.95;;;15.90;99.90;;;;;;4928862;29;20028;-76
2023/10/03 00:23:35;;;;;;;41.92;18.63;;;15.90;99.90;;;;;;4925020;29;20048;-78
2023/10/03 00:26:01;;;;;;;40.60;18.45;;;15.90;99.90;;;;;;4913052;29;20036;-79
2023/10/03 00:28:36;;;;;;;43.67;19.05;;;16.00;99.90;;;;;;4912879;29;20024;-78
2023/10/03 07:29:44;;;;;;;20.10;9.65;;;20.90;91.30;;;;;;5739894;23;20048;-78
2023/10/03 07:32:12;;;;;;;20.65;9.85;;;20.90;90.80;;;;;;4931124;29;20052;-78
2023/10/03 07:35:19;;;;;;;21.55;9.80;;;21.00;90.60;;;;;;4920727;29;20031;-80
2023/10/03 07:41:27;;;;;;;21.00;9.50;;;21.10;90.20;;;;;;4875507;23;20851;-79
2023/10/03 07:44:04;;;;;;;20.15;9.80;;;21.20;90.40;;;;;;4890873;29;20262;-77
2023/10/03 07:47:06;;;;;;;19.08;9.55;;;21.30;89.70;;;;;;4893420;29;20330;-78
2023/10/03 07:49:32;;;;;;;19.08;8.70;;;21.40;89.40;;;;;;4900354;29;20049;-78
2023/10/03 07:52:06;;;;;;;16.88;8.88;;;21.50;88.90;;;;;;4907389;29;20040;-78
2023/10/03 07:54:33;;;;;;;16.48;8.45;;;21.70;88.00;;;;;;4891117;29;20073;-79
2023/10/03 07:57:08;;;;;;;18.45;9.52;;;21.90;87.60;;;;;;4907298;29;20071;-79
2023/10/03 07:59:43;;;;;;;19.35;9.18;;;22.10;88.00;;;;;;4906558;29;20085;-77
2023/10/03 08:02:10;;;;;;;16.88;8.95;;;22.30;86.80;;;;;;4890546;29;20043;-77
2023/10/03 08:04:46;;;;;;;16.92;8.55;;;22.60;85.20;;;;;;4907318;29;20037;-77
2023/10/03 08:07:21;;;;;;;17.38;8.77;;;22.80;84.50;;;;;;4908093;29;20258;-75
2023/10/03 08:09:53;;;;;;;17.50;8.15;;;23.00;83.30;;;;;;4910868;29;20044;-78
2023/10/03 08:12:24;;;;;;;18.25;8.25;;;23.40;83.10;;;;;;4910143;29;20215;-76
2023/10/03 08:14:53;;;;;;;16.80;8.40;;;23.60;81.90;;;;;;4910768;29;20044;-76
2023/10/03 08:17:26;;;;;;;16.42;7.47;;;23.90;80.70;;;;;;4907445;29;20123;-79
2023/10/03 08:19:52;;;;;;;14.18;7.13;;;24.10;80.00;;;;;;4910783;29;20040;-79
2023/10/03 08:22:20;;;;;;;14.95;7.65;;;24.50;78.60;;;;;;4910224;29;20059;-78
2023/10/03 08:24:47;;;;;;;12.80;6.97;;;24.80;77.60;;;;;;4910375;29;20020;-79
2023/10/03 08:27:21;;;;;;;12.38;7.07;;;25.20;75.80;;;;;;4910544;29;20487;-79
2023/10/03 08:29:57;;;;;;;9.32;5.65;;;25.50;75.30;;;;;;4922166;29;20044;-76
2023/10/03 08:32:27;;;;;;;7.57;4.28;;;25.90;73.00;;;;;;4918817;29;20032;-76
2023/10/03 08:34:53;;;;;;;7.47;4.25;;;26.20;70.00;;;;;;4929057;29;20059;-77
2023/10/03 08:37:21;;;;;;;7.25;3.70;;;26.30;70.20;;;;;;4922084;29;20302;-78
2023/10/03 08:39:48;;;;;;;8.60;4.00;;;26.50;69.00;;;;;;4893732;29;20063;-77
2023/10/03 08:45:22;;;;;;;7.10;3.90;;;26.70;69.10;;;;;;4916470;29;20055;-78
2023/10/03 08:47:50;;;;;;;7.13;4.38;;;26.60;68.40;;;;;;4925062;29;20043;-76
2023/10/03 08:50:34;;;;;;;9.60;4.15;;;26.80;68.20;;;;;;4927617;29;20051;-76
2023/10/03 08:53:13;;;;;;;8.45;4.38;;;26.80;68.30;;;;;;4928098;29;20099;-77
2023/10/03 08:55:48;;;;;;;8.10;3.72;;;26.90;68.00;;;;;;4928809;29;20217;-76
2023/10/03 08:58:18;;;;;;;7.18;3.97;;;26.90;67.70;;;;;;4928705;29;20043;-75
2023/10/03 09:00:49;;;;;;;7.45;3.50;;;26.90;67.80;;;;;;4927820;29;20047;-75
2023/10/03 09:03:17;;;;;;;7.50;3.97;;;26.90;67.80;;;;;;4928168;29;20047;-76
2023/10/03 09:05:44;;;;;;;8.95;3.92;;;26.90;67.70;;;;;;4914065;29;20139;-75
2023/10/03 09:08:16;;;;;;;7.35;3.85;;;27.00;67.40;;;;;;4909052;29;20107;-75
2023/10/03 09:10:51;;;;;;;7.50;3.97;;;27.10;67.20;;;;;;4893045;29;20032;-76
2023/10/03 09:13:25;;;;;;;8.15;4.35;;;27.30;67.20;;;;;;4908244;29;20040;-74
2023/10/03 09:15:59;;;;;;;9.10;4.40;;;27.20;67.20;;;;;;4909952;29;20099;-75
2023/10/03 09:18:30;;;;;;;7.80;3.83;;;27.40;66.90;;;;;;4908905;29;20032;-77
2023/10/03 09:20:59;;;;;;;7.30;3.95;;;27.40;67.00;;;;;;4909679;29;20036;-76
2023/10/03 09:23:38;;;;;;;8.23;4.20;;;27.40;67.40;;;;;;4909296;29;20016;-77
2023/10/03 09:26:06;;;;;;;9.40;3.75;;;27.50;66.70;;;;;;4888782;29;20033;-79
2023/10/03 09:28:51;;;;;;;6.40;4.28;;;27.50;67.00;;;;;;4889758;29;20032;-77
2023/10/03 09:31:26;;;;;;;7.50;4.05;;;27.20;67.50;;;;;;4892643;29;20104;-77
2023/10/03 09:34:01;;;;;;;8.93;3.88;;;27.30;67.30;;;;;;4892979;29;20029;-79
2023/10/03 09:36:28;;;;;;;7.60;4.18;;;27.20;67.40;;;;;;4892196;29;20222;-76
2023/10/03 09:38:55;;;;;;;8.75;4.40;;;27.20;67.60;;;;;;4891835;29;20080;-78
2023/10/03 09:41:24;;;;;;;7.50;4.10;;;27.10;67.50;;;;;;4894352;29;20043;-77
2023/10/03 09:43:55;;;;;;;7.57;3.88;;;27.20;67.90;;;;;;4910500;29;20039;-76
2023/10/03 09:46:38;;;;;;;6.90;4.20;;;27.30;68.50;;;;;;4926514;29;20043;-76
2023/10/03 09:49:08;;;;;;;7.10;3.75;;;27.50;67.40;;;;;;4910132;29;20044;-76
2023/10/03 09:51:51;;;;;;;9.15;4.05;;;27.50;67.40;;;;;;4909183;29;20037;-76
2023/10/03 09:54:24;;;;;;;7.82;3.78;;;27.70;67.30;;;;;;4903256;29;20048;-74
2023/10/03 09:56:55;;;;;;;7.38;3.85;;;27.90;66.70;;;;;;4892028;29;20060;-76
2023/10/03 09:59:23;;;;;;;8.40;3.83;;;28.20;66.20;;;;;;4907603;29;20310;-76
2023/10/03 10:01:49;;;;;;;6.47;3.83;;;28.40;66.00;;;;;;4892149;29;20039;-77
2023/10/03 10:04:19;;;;;;;7.10;3.45;;;28.60;65.60;;;;;;4908144;29;20040;-76
2023/10/03 10:07:19;;;;;;;7.07;3.55;;;28.90;65.00;;;;;;4894467;29;20071;-80
2023/10/03 10:10:07;;;;;;;7.45;3.63;;;29.30;64.60;;;;;;4883031;29;20116;-76
2023/10/03 10:12:37;;;;;;;7.55;3.78;;;29.20;64.70;;;;;;4904742;29;20048;-77
2023/10/03 10:17:54;;;;;;;6.43;3.60;;;28.80;65.30;;;;;;4904083;29;20333;-77
2023/10/03 10:20:27;;;;;;;7.55;3.85;;;28.80;65.00;;;;;;4888322;29;20040;-77
2023/10/03 10:22:59;;;;;;;8.00;4.00;;;28.60;65.70;;;;;;4888643;29;20234;-76
2023/10/03 10:25:37;;;;;;;6.93;3.45;;;28.80;65.50;;;;;;4903518;29;20085;-75
2023/10/03 10:28:11;;;;;;;6.15;3.35;;;29.10;65.00;;;;;;4906896;29;20313;-77
2023/10/03 10:30:44;;;;;;;9.27;3.25;;;29.20;64.80;;;;;;4905654;29;20016;-77
2023/10/03 10:33:31;;;;;;;5.97;3.30;;;29.40;64.70;;;;;;4906400;29;20282;-75
2023/10/03 10:36:03;;;;;;;7.22;3.67;;;29.60;64.00;;;;;;4922472;29;20036;-75
2023/10/03 10:38:40;;;;;;;8.52;3.85;;;29.40;63.50;;;;;;4890799;29;20373;-76
2023/10/03 10:41:17;;;;;;;6.75;3.28;;;29.30;64.20;;;;;;4891334;29;20404;-76
2023/10/03 10:44:16;;;;;;;8.23;3.67;;;29.20;64.20;;;;;;4907863;29;20040;-75
2023/10/03 10:46:47;;;;;;;5.63;3.88;;;29.30;64.30;;;;;;4906910;29;20079;-75
2023/10/03 10:49:31;;;;;;;8.27;3.55;;;29.50;64.20;;;;;;4887739;29;20029;-74
2023/10/03 10:51:59;;;;;;;8.18;3.30;;;29.40;64.40;;;;;;4888892;29;20039;-75
2023/10/03 10:54:49;;;;;;;6.45;3.65;;;29.50;64.30;;;;;;4888593;29;20035;-78
2023/10/03 10:57:15;;;;;;;11.82;3.75;;;29.70;64.10;;;;;;4880418;29;20063;-78
2023/10/03 10:59:43;;;;;;;9.15;3.70;;;30.20;63.40;;;;;;4908634;29;20322;-75
2023/10/03 11:02:21;;;;;;;6.43;3.63;;;30.30;63.40;;;;;;4905918;29;20063;-79
2023/10/03 11:04:58;;;;;;;6.03;3.40;;;30.80;62.40;;;;;;4896467;29;20330;-79
2023/10/03 11:07:29;;;;;;;6.88;3.75;;;31.10;61.80;;;;;;4882115;29;20104;-76
2023/10/03 11:10:48;;;;;;;7.05;3.33;;;32.00;60.50;;;;;;4902586;29;20032;-78
2023/10/03 11:13:17;;;;;;;5.80;3.00;;;32.40;59.40;;;;;;4906648;29;20310;-80
2023/10/03 11:15:50;;;;;;;7.35;3.25;;;31.90;60.70;;;;;;4926712;29;20039;-78
2023/10/03 11:18:26;;;;;;;7.65;3.28;;;31.70;60.30;;;;;;4909530;29;20371;-76
2023/10/03 11:20:53;;;;;;;7.13;3.40;;;32.00;60.50;;;;;;4910014;29;20051;-77
2023/10/03 11:23:27;;;;;;;7.75;3.38;;;32.10;60.50;;;;;;4925290;29;20103;-79
2023/10/03 11:25:53;;;;;;;7.15;3.47;;;32.00;60.20;;;;;;4925505;29;20036;-78
2023/10/03 11:28:32;;;;;;;8.07;3.72;;;31.30;61.10;;;;;;4920337;29;20076;-79
2023/10/03 11:31:09;;;;;;;6.25;3.90;;;30.80;61.80;;;;;;4907205;29;20100;-76
2023/10/03 11:33:47;;;;;;;6.32;3.65;;;30.40;62.70;;;;;;4890933;29;20020;-78
2023/10/03 11:36:14;;;;;;;5.60;3.47;;;30.30;62.90;;;;;;4911411;29;20106;-77
2023/10/03 11:38:50;;;;;;;7.03;3.85;;;30.10;62.80;;;;;;4926136;29;20028;-78
2023/10/03 11:41:37;;;;;;;9.80;4.35;;;29.90;63.10;;;;;;4926350;29;20276;-76
2023/10/03 11:44:06;;;;;;;6.82;3.70;;;29.80;63.20;;;;;;4926869;29;20068;-77
2023/10/03 11:46:39;;;;;;;5.80;3.55;;;30.00;63.10;;;;;;4930275;29;20055;-75
2023/10/03 11:49:08;;;;;;;6.72;3.50;;;30.20;63.10;;;;;;4914551;29;20040;-77
2023/10/03 11:51:42;;;;;;;6.07;3.55;;;30.50;63.00;;;;;;4929681;29;20080;-77
2023/10/03 11:54:08;;;;;;;5.22;3.30;;;30.50;62.40;;;;;;4931226;29;20047;-77
2023/10/03 11:56:45;;;;;;;6.40;3.75;;;30.60;62.50;;;;;;4933294;29;20028;-77
2023/10/03 11:59:15;;;;;;;7.27;3.80;;;30.60;62.30;;;;;;4896884;29;20033;-77
2023/10/03 12:01:50;;;;;;;6.70;3.88;;;30.80;62.50;;;;;;4904611;29;20032;-79
2023/10/03 12:04:19;;;;;;;7.40;3.88;;;30.80;62.40;;;;;;4917843;29;20064;-77
2023/10/03 12:06:48;;;;;;;8.15;3.83;;;30.50;62.50;;;;;;4893323;29;20040;-79
2023/10/03 12:09:17;;;;;;;6.82;3.75;;;29.90;63.20;;;;;;4892516;29;20256;-77
2023/10/03 12:11:46;;;;;;;8.05;3.83;;;29.60;63.80;;;;;;4891167;29;20037;-77
2023/10/03 12:14:20;;;;;;;8.35;5.05;;;29.30;64.40;;;;;;4875517;29;20265;-76
2023/10/03 12:16:52;;;;;;;7.82;4.00;;;29.30;64.50;;;;;;4875538;29;20068;-77
2023/10/03 12:19:21;;;;;;;8.52;4.15;;;29.70;64.00;;;;;;4874837;29;20040;-77
2023/10/03 12:21:56;;;;;;;6.47;3.72;;;29.70;64.00;;;;;;4892201;29;20032;-76
2023/10/03 12:24:28;;;;;;;7.97;4.00;;;29.80;63.40;;;;;;4891674;29;20036;-77
2023/10/03 12:27:06;;;;;;;6.15;3.95;;;29.60;64.00;;;;;;4890961;29;20048;-77
2023/10/03 12:29:35;;;;;;;6.30;4.20;;;29.20;64.70;;;;;;4890740;29;20303;-79
2023/10/03 12:32:01;;;;;;;12.55;4.63;;;29.00;64.90;;;;;;4893525;29;20283;-78
2023/10/03 12:34:29;;;;;;;10.13;4.75;;;29.00;64.90;;;;;;4909156;29;20025;-78
2023/10/03 12:36:59;;;;;;;6.80;3.60;;;29.00;64.90;;;;;;4909600;29;20077;-77
2023/10/03 12:39:31;;;;;;;7.68;4.20;;;28.90;65.20;;;;;;4910065;29;20064;-79
2023/10/03 12:42:04;;;;;;;8.70;4.90;;;28.70;65.40;;;;;;4911061;29;20095;-78
2023/10/03 12:45:03;;;;;;;7.55;4.53;;;28.60;65.60;;;;;;4893666;29;20156;-78
2023/10/03 12:47:35;;;;;;;8.18;4.32;;;28.60;65.80;;;;;;4908659;29;20043;-78
2023/10/03 12:50:17;;;;;;;9.38;4.40;;;29.00;65.00;;;;;;4909263;29;20040;-77
2023/10/03 12:52:47;;;;;;;7.30;3.83;;;29.50;64.30;;;;;;4908958;29;20043;-77
2023/10/03 12:55:18;;;;;;;6.03;3.80;;;29.40;64.10;;;;;;4908319;29;20040;-77
2023/10/03 12:57:48;;;;;;;6.68;4.45;;;29.20;64.60;;;;;;4909697;29;20040;-76
2023/10/03 13:00:20;;;;;;;6.75;4.15;;;29.10;65.00;;;;;;4909980;29;20035;-79
2023/10/03 13:02:56;;;;;;;6.65;4.40;;;29.30;64.70;;;;;;4893591;29;20028;-76
2023/10/03 13:05:23;;;;;;;8.95;4.10;;;29.20;64.70;;;;;;4909424;29;20082;-77
2023/10/03 13:08:12;;;;;;;8.90;4.10;;;28.80;65.20;;;;;;4893213;29;20077;-78
2023/10/03 13:11:15;;;;;;;8.77;4.43;;;28.30;66.20;;;;;;4893376;29;20024;-81
2023/10/03 13:14:03;;;;;;;7.47;4.28;;;27.80;67.30;;;;;;4893452;29;20025;-79
2023/10/03 13:16:59;;;;;;;8.40;4.43;;;27.60;68.10;;;;;;4909057;29;20052;-78
2023/10/03 13:19:31;;;;;;;7.90;4.28;;;27.70;68.00;;;;;;4873637;29;20044;-78
2023/10/03 13:22:31;;;;;;;8.82;4.50;;;27.60;68.40;;;;;;4873782;29;20330;-79
2023/10/03 13:25:26;;;;;;;6.65;4.50;;;27.40;68.60;;;;;;4875222;29;20353;-83
2023/10/03 13:27:56;;;;;;;10.48;5.03;;;27.20;69.50;;;;;;4873329;29;20041;-80
2023/10/03 13:30:26;;;;;;;7.47;4.40;;;27.00;70.30;;;;;;4872967;29;20047;-79
2023/10/03 13:32:55;;;;;;;8.18;4.63;;;26.70;71.10;;;;;;4888842;29;20086;-82
2023/10/03 13:35:22;;;;;;;8.60;5.18;;;26.40;72.10;;;;;;4888655;29;20048;-79
2023/10/03 13:37:54;;;;;;;8.82;4.18;;;26.20;72.80;;;;;;4888960;29;20033;-80
2023/10/03 13:40:27;;;;;;;11.05;4.93;;;26.20;72.80;;;;;;4853057;29;20264;-77
2023/10/03 13:43:45;;;;;;;8.30;5.00;;;26.20;72.90;;;;;;4875348;29;20052;-78
2023/10/03 13:46:11;;;;;;;9.02;5.03;;;26.10;73.10;;;;;;4857730;29;20049;-81
2023/10/03 13:48:57;;;;;;;7.45;4.30;;;26.60;72.60;;;;;;4857318;29;20054;-80
2023/10/03 13:51:23;;;;;;;9.77;4.95;;;27.70;71.30;;;;;;4903668;29;20036;-76
2023/10/03 13:53:49;;;;;;;8.00;4.85;;;29.40;67.20;;;;;;4908972;29;20322;-78
2023/10/03 13:56:18;;;;;;;8.05;4.50;;;30.80;64.50;;;;;;4908057;29;20032;-80
2023/10/03 13:58:44;;;;;;;7.95;4.90;;;30.30;64.30;;;;;;4909033;29;20088;-78
2023/10/03 14:01:13;;;;;;;7.20;4.55;;;30.10;64.50;;;;;;4908042;29;20037;-77
2023/10/03 14:03:54;;;;;;;11.05;4.90;;;30.20;64.80;;;;;;4907364;29;20095;-78
2023/10/03 14:06:31;;;;;;;6.93;4.03;;;30.50;64.00;;;;;;4891022;29;20060;-79
2023/10/03 14:08:59;;;;;;;6.93;3.70;;;30.70;63.30;;;;;;4892631;29;20051;-77
2023/10/03 14:14:17;;;;;;;8.02;4.68;;;31.10;62.50;;;;;;4907892;29;20068;-77
2023/10/03 14:16:55;;;;;;;6.25;3.90;;;30.70;61.80;;;;;;4907377;29;20085;-78
2023/10/03 14:19:21;;;;;;;8.10;4.20;;;29.90;63.60;;;;;;4908668;29;20043;-78
2023/10/03 14:21:47;;;;;;;8.10;4.05;;;29.30;64.40;;;;;;4892315;29;20035;-78
2023/10/03 14:24:13;;;;;;;7.47;3.95;;;28.70;65.60;;;;;;4907631;29;20041;-77
2023/10/03 14:26:39;;;;;;;6.07;3.60;;;29.20;65.10;;;;;;4907124;29;20330;-77
2023/10/03 14:29:05;;;;;;;5.68;3.10;;;29.80;62.50;;;;;;4907511;29;20044;-78
2023/10/03 14:31:31;;;;;;;7.50;3.13;;;29.40;62.90;;;;;;4887132;29;20037;-78
2023/10/03 14:33:57;;;;;;;8.00;3.60;;;28.60;64.40;;;;;;4872553;29;20060;-77
2023/10/03 14:40:08;;;;;;;5.85;3.13;;;27.40;67.10;;;;;;4850650;29;20066;-79
2023/10/03 14:43:01;;;;;;;10.30;2.97;;;27.00;67.80;;;;;;4832652;29;20224;-80
2023/10/03 14:45:30;;;;;;;6.10;2.95;;;26.40;68.60;;;;;;4833808;29;20062;-78
2023/10/03 14:47:56;;;;;;;7.45;2.95;;;26.20;69.00;;;;;;4864764;29;20076;-79
2023/10/03 14:50:23;;;;;;;10.23;3.75;;;26.10;69.60;;;;;;4887009;29;20029;-78
2023/10/03 14:52:49;;;;;;;7.78;3.33;;;26.00;69.70;;;;;;4887754;29;20049;-77
2023/10/03 14:55:16;;;;;;;6.20;2.97;;;25.90;70.30;;;;;;4887500;29;20218;-74
2023/10/03 14:57:49;;;;;;;8.55;3.20;;;25.80;70.30;;;;;;4857116;29;20277;-78
2023/10/03 15:00:18;;;;;;;8.25;3.05;;;25.70;70.50;;;;;;4892413;29;20080;-77
2023/10/03 15:02:59;;;;;;;6.07;3.20;;;25.60;71.10;;;;;;4906913;29;20048;-78
2023/10/03 15:05:30;;;;;;;7.85;3.17;;;25.90;70.50;;;;;;4890438;29;20037;-77
2023/10/03 15:08:03;;;;;;;6.13;3.33;;;26.00;70.40;;;;;;4891475;29;20040;-77
2023/10/03 15:10:30;;;;;;;5.22;3.05;;;25.80;71.00;;;;;;4890787;29;20020;-77
2023/10/03 15:12:57;;;;;;;6.50;3.45;;;25.50;71.60;;;;;;4891156;29;20032;-76
2023/10/03 15:15:22;;;;;;;6.97;3.03;;;25.70;71.70;;;;;;4907304;29;20078;-76
2023/10/03 15:17:49;;;;;;;5.80;3.40;;;25.60;72.50;;;;;;4906122;29;20044;-78
2023/10/03 15:20:19;;;;;;;7.57;3.03;;;25.50;72.20;;;;;;4890963;29;20036;-79
2023/10/03 15:22:45;;;;;;;5.32;3.45;;;25.50;72.40;;;;;;4907506;29;20024;-77
2023/10/03 15:25:13;;;;;;;7.95;3.70;;;25.40;72.70;;;;;;4907676;29;20047;-75
2023/10/03 15:27:39;;;;;;;7.43;3.80;;;25.30;73.10;;;;;;4907259;29;20036;-78
2023/10/03 15:30:08;;;;;;;7.78;3.63;;;25.30;73.20;;;;;;4873760;29;20505;-77
2023/10/03 15:32:37;;;;;;;9.10;3.58;;;24.90;83.50;;;;;;4900793;29;20243;-75
2023/10/03 15:35:04;;;;;;;6.40;3.20;;;23.60;84.40;;;;;;4907569;29;20047;-78
2023/10/03 15:37:31;;;;;;;6.85;2.92;;;22.90;87.50;;;;;;4907079;29;20063;-78
2023/10/03 15:40:08;;;;;;;6.88;2.78;;;22.70;84.20;;;;;;4907479;29;20064;-76
2023/10/03 15:42:34;;;;;;;6.20;3.45;;;22.70;84.90;;;;;;4906314;29;20036;-76
2023/10/03 15:45:04;;;;;;;7.95;3.30;;;22.70;86.10;;;;;;4907386;29;20067;-74
2023/10/03 15:47:31;;;;;;;9.32;3.80;;;22.80;87.40;;;;;;4907103;29;20043;-78
2023/10/03 15:49:57;;;;;;;9.77;4.10;;;21.30;99.90;;;;;;4907341;29;20325;-78
2023/10/03 15:52:23;;;;;;;8.57;3.42;;;19.30;99.90;;;;;;4907259;29;20041;-76
2023/10/03 15:54:49;;;;;;;7.80;3.58;;;18.50;99.90;;;;;;4907480;29;20033;-76
2023/10/03 15:57:18;;;;;;;5.97;3.40;;;18.30;99.90;;;;;;4907467;29;20029;-76
2023/10/03 15:59:46;;;;;;;8.27;3.88;;;18.00;99.90;;;;;;4890090;29;20234;-78
2023/10/03 16:02:11;;;;;;;5.65;1.65;;;17.90;99.90;;;;;;4907275;29;20096;-76
2023/10/03 16:04:37;;;;;;;7.30;2.05;;;16.90;99.90;;;;;;4906710;29;20021;-74
2023/10/03 16:07:06;;;;;;;3.45;1.60;;;16.40;99.90;;;;;;4907339;29;20037;-74
2023/10/03 16:09:31;;;;;;;;;;;15.90;99.90;;;;;;4907155;29;20208;-72
2023/10/03 16:11:58;;;;;;;4.93;2.13;;;15.80;99.90;;;;;;4907331;29;19966;-76
2023/10/03 16:14:26;;;;;;;4.20;1.83;;;15.80;99.90;;;;;;4907548;29;20040;-74
2023/10/03 16:16:58;;;;;;;6.35;2.10;;;15.70;99.90;;;;;;4907638;29;20044;-78
2023/10/03 16:19:29;;;;;;;4.68;2.08;;;15.70;99.90;;;;;;4906076;29;20073;-73
2023/10/03 16:21:55;;;;;;;6.25;2.10;;;15.80;99.90;;;;;;4907194;29;20036;-74
2023/10/03 16:24:21;;;;;;;5.00;2.22;;;15.80;99.90;;;;;;4907253;29;20020;-75
2023/10/03 16:26:47;;;;;;;4.03;1.92;;;15.80;99.90;;;;;;4906494;29;20040;-76
2023/10/03 16:29:13;;;;;;;5.85;2.10;;;15.80;99.90;;;;;;4909923;29;20314;-73
2023/10/03 16:31:38;;;;;;;5.22;2.28;;;15.90;99.90;;;;;;4910094;29;20134;-73
2023/10/03 16:34:04;;;;;;;4.50;1.90;;;15.90;99.90;;;;;;4910361;29;20077;-74
2023/10/03 16:36:30;;;;;;;6.65;1.70;;;15.90;99.90;;;;;;4909867;29;20043;-75
2023/10/03 16:38:56;;;;;;;3.50;2.03;;;15.90;99.90;;;;;;4910374;29;20021;-75
2023/10/03 16:41:22;;;;;;;2.92;1.65;;;15.70;99.90;;;;;;4909074;29;20112;-75
2023/10/03 16:43:48;;;;;;;5.68;2.03;;;15.70;99.90;;;;;;4911962;29;20044;-76
2023/10/03 16:46:17;;;;;;;4.45;1.67;;;15.60;99.90;;;;;;4912777;29;20091;-73
2023/10/03 16:48:42;;;;;;;;;;;15.60;99.90;;;;;;4913661;29;20033;-73
2023/10/03 16:51:08;;;;;;;3.20;1.60;;;15.60;99.90;;;;;;4912167;29;19931;-73
2023/10/03 16:53:34;;;;;;;3.65;1.80;;;15.50;99.90;;;;;;4910143;29;20025;-74
2023/10/03 16:56:00;;;;;;;3.95;1.73;;;15.50;99.90;;;;;;4909246;29;20044;-73
2023/10/03 16:58:27;;;;;;;4.18;1.70;;;15.50;99.90;;;;;;4910105;29;20032;-72
2023/10/03 17:00:53;;;;;;;4.45;1.60;;;15.40;99.90;;;;;;4910620;29;20047;-74
2023/10/03 17:03:19;;;;;;;4.50;1.63;;;15.40;99.90;;;;;;4910319;29;20028;-74
2023/10/03 17:05:45;;;;;;;3.47;1.38;;;15.40;99.90;;;;;;4909528;29;20040;-74
2023/10/03 17:08:11;;;;;;;4.57;1.85;;;15.50;99.90;;;;;;4910239;29;20028;-74
2023/10/03 17:10:38;;;;;;;3.70;1.52;;;15.40;99.90;;;;;;4909265;29;20238;-76
2023/10/03 17:13:05;;;;;;;3.77;1.77;;;15.40;99.90;;;;;;4909899;29;20040;-73
2023/10/03 17:15:32;;;;;;;4.28;1.38;;;15.40;99.90;;;;;;4909243;29;20227;-73
2023/10/03 17:17:57;;;;;;;3.97;1.58;;;15.50;99.90;;;;;;4909770;29;20044;-75
2023/10/03 17:20:23;;;;;;;4.47;1.55;;;15.40;99.90;;;;;;4914523;29;20092;-74
2023/10/03 17:22:49;;;;;;;4.18;1.50;;;15.30;99.90;;;;;;4908046;29;20036;-72
2023/10/03 17:25:15;;;;;;;3.28;1.30;;;15.30;99.90;;;;;;4909746;29;20040;-75
2023/10/03 17:27:43;;;;;;;4.53;1.60;;;15.20;99.90;;;;;;4908892;29;20041;-75
2023/10/03 17:30:13;;;;;;;4.57;1.30;;;15.20;99.90;;;;;;4916845;29;20327;-74
2023/10/03 17:32:43;;;;;;;3.25;1.35;;;15.20;99.90;;;;;;4901261;29;20453;-77
2023/10/03 17:35:09;;;;;;;3.60;1.20;;;15.20;99.90;;;;;;4912129;29;20243;-73
2023/10/03 17:37:39;;;;;;;3.08;1.25;;;15.20;99.90;;;;;;4905709;29;20024;-73
2023/10/03 17:40:12;;;;;;;4.43;1.52;;;15.20;99.90;;;;;;4888543;29;20085;-74
2023/10/03 17:42:40;;;;;;;2.60;1.15;;;15.10;99.90;;;;;;4890315;29;20028;-74
2023/10/03 17:45:08;;;;;;;5.85;1.63;;;15.10;99.90;;;;;;4889366;29;20230;-75
2023/10/03 17:47:38;;;;;;;5.82;1.40;;;14.90;99.90;;;;;;4889949;29;20319;-74
2023/10/03 17:50:07;;;;;;;5.10;1.50;;;14.90;99.90;;;;;;4890346;29;20347;-73
2023/10/03 17:52:33;;;;;;;4.25;1.60;;;14.80;99.90;;;;;;4889956;29;20230;-74
2023/10/03 17:54:59;;;;;;;4.35;1.33;;;14.80;99.90;;;;;;4890253;29;20025;-76
2023/10/03 17:57:24;;;;;;;4.43;1.50;;;14.70;99.90;;;;;;4890445;29;20248;-74
2023/10/03 17:59:50;;;;;;;3.20;1.48;;;14.70;99.90;;;;;;4890130;29;20264;-74
2023/10/03 18:02:16;;;;;;;4.05;1.27;;;14.70;99.90;;;;;;4890098;29;20041;-73
2023/10/03 18:04:42;;;;;;;2.72;1.10;;;14.60;99.90;;;;;;4892671;29;20084;-74
2023/10/03 18:07:09;;;;;;;3.20;1.15;;;14.60;99.90;;;;;;4909209;29;20036;-72
2023/10/03 18:09:37;;;;;;;3.83;1.70;;;14.60;99.90;;;;;;4908518;29;20107;-78
2023/10/03 18:12:04;;;;;;;3.78;1.42;;;14.60;99.90;;;;;;4909181;29;20329;-74
2023/10/03 18:14:29;;;;;;;4.30;1.30;;;14.60;99.90;;;;;;4907373;29;20033;-72
2023/10/03 18:16:57;;;;;;;4.90;1.50;;;14.60;99.90;;;;;;4908186;29;20200;-72
2023/10/03 18:19:24;;;;;;;2.77;1.40;;;14.60;99.90;;;;;;4908684;29;20363;-72
2023/10/03 18:21:50;;;;;;;4.13;1.50;;;14.50;99.90;;;;;;4908281;29;20088;-70
2023/10/03 18:24:15;;;;;;;3.65;1.38;;;14.50;99.90;;;;;;4908499;29;20084;-73
2023/10/03 18:26:41;;;;;;;4.80;1.75;;;14.50;99.90;;;;;;4907966;29;20020;-71
2023/10/03 18:29:07;;;;;;;3.60;1.40;;;14.40;99.90;;;;;;4908425;29;20035;-75
2023/10/03 18:31:32;;;;;;;3.60;1.73;;;14.30;99.90;;;;;;4908114;29;20028;-73
2023/10/03 18:33:59;;;;;;;5.13;1.77;;;14.20;99.90;;;;;;4908289;29;20036;-72
2023/10/03 18:36:25;;;;;;;5.53;2.03;;;14.20;99.90;;;;;;4908225;29;20091;-71
2023/10/03 18:38:51;;;;;;;4.35;1.58;;;14.20;99.90;;;;;;4907978;29;20047;-72
2023/10/03 18:41:17;;;;;;;3.53;1.63;;;14.10;99.90;;;;;;4908189;29;20226;-74
2023/10/03 18:43:43;;;;;;;6.13;1.73;;;14.10;99.90;;;;;;4907492;29;20042;-73
2023/10/03 18:46:09;;;;;;;4.95;2.05;;;14.10;99.90;;;;;;4907874;29;20041;-74
2023/10/03 18:48:35;;;;;;;3.92;1.60;;;14.00;99.90;;;;;;4907631;29;20080;-73
2023/10/03 18:51:03;;;;;;;3.85;1.70;;;14.00;99.90;;;;;;4907825;29;20080;-72
2023/10/03 18:53:29;;;;;;;4.18;1.58;;;13.90;99.90;;;;;;4907753;29;20112;-73
2023/10/03 18:55:54;;;;;;;5.28;1.50;;;13.90;99.90;;;;;;4907566;29;20032;-74
2023/10/03 18:58:25;;;;;;;4.85;2.08;;;13.90;99.90;;;;;;4907963;29;20037;-72
2023/10/03 19:00:52;;;;;;;5.22;2.00;;;13.90;99.90;;;;;;4907677;29;20040;-71
2023/10/03 19:03:18;;;;;;;5.77;1.63;;;13.80;99.90;;;;;;4908483;29;20020;-72
2023/10/03 19:05:45;;;;;;;4.25;1.85;;;13.80;99.90;;;;;;4906231;29;20028;-73
2023/10/03 19:08:11;;;;;;;4.63;1.88;;;13.80;99.90;;;;;;4907920;29;20035;-72
2023/10/03 19:10:37;;;;;;;5.65;1.85;;;13.80;99.90;;;;;;4907114;29;20028;-71
2023/10/03 19:13:03;;;;;;;3.83;1.67;;;13.80;99.90;;;;;;4906598;29;20373;-72
2023/10/03 19:15:30;;;;;;;4.75;1.70;;;13.80;99.90;;;;;;4907639;29;20036;-72
2023/10/03 19:17:57;;;;;;;6.03;1.67;;;13.70;99.90;;;;;;4907358;29;20116;-73
2023/10/03 19:20:26;;;;;;;4.38;1.40;;;13.70;99.90;;;;;;4907947;29;20226;-74
2023/10/03 19:22:51;;;;;;;4.05;1.60;;;13.70;99.90;;;;;;4907470;29;20098;-72
2023/10/03 19:25:17;;;;;;;4.57;1.75;;;13.70;99.90;;;;;;4907610;29;20025;-74
2023/10/03 19:27:43;;;;;;;3.90;1.90;;;13.70;99.90;;;;;;4906981;29;20032;-73
2023/10/03 19:30:13;;;;;;;5.05;2.10;;;13.60;99.90;;;;;;4907148;29;20059;-73
2023/10/03 19:32:42;;;;;;;5.20;1.92;;;13.50;99.90;;;;;;4907478;29;20050;-72
2023/10/03 19:35:08;;;;;;;5.07;1.92;;;13.50;99.90;;;;;;4912434;29;20032;-72
2023/10/03 19:37:36;;;;;;;4.82;1.90;;;13.40;99.90;;;;;;4905629;29;20037;-74
2023/10/03 19:40:03;;;;;;;4.87;1.67;;;13.40;99.90;;;;;;4888794;29;20053;-73
2023/10/03 19:42:28;;;;;;;5.55;1.95;;;13.30;99.90;;;;;;4887921;29;20037;-72
2023/10/03 19:44:54;;;;;;;5.20;2.05;;;13.30;99.90;;;;;;4871889;29;20330;-71
2023/10/03 19:47:20;;;;;;;4.13;2.00;;;13.30;99.90;;;;;;4908527;29;20035;-73
2023/10/03 19:49:47;;;;;;;3.97;1.73;;;13.30;99.90;;;;;;4910820;29;20037;-73
2023/10/03 19:52:13;;;;;;;5.10;2.30;;;13.40;99.90;;;;;;4912020;29;20118;-72
2023/10/03 19:54:38;;;;;;;4.38;1.90;;;13.40;99.90;;;;;;4922754;29;20093;-72
2023/10/03 19:57:04;;;;;;;3.95;1.92;;;13.30;99.90;;;;;;4906335;29;20223;-76
2023/10/03 19:59:30;;;;;;;3.92;1.75;;;13.30;99.90;;;;;;4908258;29;20039;-74
2023/10/03 20:01:56;;;;;;;4.22;1.95;;;13.30;99.90;;;;;;4906986;29;20032;-72
2023/10/03 20:04:22;;;;;;;3.80;1.98;;;13.30;99.90;;;;;;4910863;29;20091;-75
2023/10/03 20:06:47;;;;;;;5.97;2.10;;;13.30;99.90;;;;;;4910218;29;20079;-73
2023/10/03 20:09:16;;;;;;;4.15;1.65;;;13.30;99.90;;;;;;4911232;29;20024;-75
2023/10/03 20:11:45;;;;;;;6.22;1.75;;;13.30;99.90;;;;;;4910294;29;20036;-72
2023/10/03 20:14:12;;;;;;;5.22;2.15;;;13.20;99.90;;;;;;4910560;29;20338;-72
2023/10/03 20:16:38;;;;;;;5.13;2.00;;;13.30;99.90;;;;;;4913581;29;20222;-72
2023/10/03 20:19:04;;;;;;;3.65;1.70;;;13.30;99.90;;;;;;4917818;29;20024;-74